CDT,Max TemperatureF,Mean TemperatureF,Min TemperatureF,Max Dew PointF,MeanDew PointF,Min DewpointF,Max Humidity, Mean Humidity, Min Humidity, Max Sea Level PressureIn, Mean Sea Level PressureIn, Min Sea Level PressureIn, Max VisibilityMiles, Mean VisibilityMiles, Min VisibilityMiles, Max Wind SpeedMPH, Mean Wind SpeedMPH, Max Gust SpeedMPH,PrecipitationIn, CloudCover, Events, WindDirDegrees
2013-10-1,73,58,42,52,45,36,93,56,25,30.00,29.81,29.62,10,10,7,15,9,23,0.00,0,,262
2013-10-2,75,56,37,54,42,36,100,65,27,30.05,29.97,29.84,10,10,4,22,4,28,0.34,3,Rain-Thunderstorm,118
2013-10-3,59,57,55,57,55,54,100,98,88,29.92,29.86,29.81,10,7,2,14,6,22,0.14,8,Rain-Thunderstorm,54
2013-10-4,55,54,53,55,54,54,100,97,94,29.98,29.92,29.84,10,6,2,15,8,23,0.30,8,Rain-Thunderstorm,55
2013-10-5,59,49,39,57,49,39,100,88,63,29.84,29.79,29.74,10,9,4,24,8,31,0.07,6,Rain-Thunderstorm,162
2013-10-6,53,45,37,48,44,37,100,93,72,29.85,29.74,29.69,10,9,2,14,3,21,0.02,6,Rain,303
2013-10-7,64,52,41,46,42,39,100,76,40,29.99,29.93,29.83,10,10,10,10,5,,0.00,0,,284
2013-10-8,75,58,41,46,44,39,93,60,34,29.99,29.91,29.85,10,10,10,18,6,30,0.00,0,,174
2013-10-9,73,62,51,52,48,46,82,63,41,30.06,30.02,29.95,10,10,7,12,8,18,0.00,0,,176
2013-10-10,75,58,41,52,47,41,100,70,36,30.05,29.98,29.90,10,10,7,13,3,23,0.00,0,,149
2013-10-11,73,62,51,59,53,48,94,72,47,29.90,29.78,29.65,10,10,10,24,8,32,0.06,2,Rain-Thunderstorm,144
2013-10-12,57,50,44,54,41,36,93,72,47,30.18,29.94,29.73,10,10,10,25,7,32,0.00,3,,244
2013-10-13,57,45,33,39,35,32,100,73,38,30.43,30.36,30.19,10,10,7,8,3,,0.00,0,,280
2013-10-14,53,42,32,46,38,32,100,82,54,30.41,30.22,29.95,10,10,5,14,4,22,0.28,3,Rain,99
2013-10-15,51,48,44,52,47,45,100,97,87,29.96,29.75,29.68,10,7,2,17,8,25,0.58,8,Rain,153
2013-10-16,51,42,32,45,39,30,100,87,58,29.96,29.90,29.81,10,9,4,14,8,20,0.00,5,,307
2013-10-17,57,45,33,45,38,32,100,81,51,29.89,29.82,29.76,10,10,4,14,3,20,0.02,3,Rain,280
2013-10-18,51,42,33,39,34,28,100,75,41,29.98,29.91,29.85,10,10,5,14,9,22,0.00,3,Rain,296
2013-10-19,44,37,30,37,33,27,100,85,66,29.84,29.76,29.68,10,10,10,15,5,20,0.00,4,Rain,263
2013-10-20,46,36,26,43,33,27,100,89,66,29.87,29.73,29.60,10,9,2,20,4,25,0.00,6,Rain,254
2013-10-21,37,30,23,34,23,19,93,68,52,29.96,29.94,29.87,10,10,10,16,10,23,0.00,6,,284
2013-10-22,37,29,21,30,26,19,100,83,70,30.02,29.99,29.95,10,10,10,8,3,,0.00,5,Rain-Snow,300
2013-10-23,37,34,30,30,25,19,93,74,52,30.09,30.03,30.00,10,10,10,15,6,22,0.00,8,,295
2013-10-24,42,36,30,28,26,19,93,70,53,30.31,30.22,30.10,10,10,10,15,7,18,0.00,7,,292
2013-10-25,55,39,23,39,32,21,100,72,50,30.32,30.08,29.79,10,10,7,16,6,28,0.00,2,,226
2013-10-26,50,42,33,39,30,27,81,65,50,30.10,30.00,29.79,10,10,10,21,12,26,0.00,2,,301
2013-10-27,57,42,26,34,29,25,93,67,38,30.11,29.92,29.80,10,10,10,14,4,20,0.00,0,,280
2013-10-28,42,33,24,30,24,21,86,68,45,30.42,30.34,30.12,10,10,10,15,8,20,0.00,0,,47
2013-10-29,41,32,24,36,29,21,93,76,65,30.39,30.24,30.08,10,10,5,10,5,,0.00,7,Rain,71
2013-10-30,48,42,37,48,43,36,100,100,93,30.07,29.89,29.66,5,1,0,9,3,,0.06,8,Fog-Rain,84
2013-10-31,48,42,37,48,40,36,100,97,87,29.65,29.49,29.40,10,6,0,12,6,17,0.00,8,Fog-Rain,273